createdAt,value
2017-07-21T00:00:05.883Z,39.3
2017-07-21T00:02:07.632Z,38.9
2017-07-21T00:04:05.562Z,38.9
2017-07-21T00:06:08.158Z,38.6
2017-07-21T00:08:05.854Z,38.6
2017-07-21T00:10:05.702Z,38.6
2017-07-21T00:12:05.425Z,38.5
2017-07-21T00:14:05.162Z,38.7
2017-07-21T00:16:08.598Z,38.5
2017-07-21T00:18:10.574Z,38.6
2017-07-21T00:20:05.281Z,38.6
2017-07-21T00:22:06.114Z,38.5
2017-07-21T00:24:05.373Z,38.5
2017-07-21T00:26:05.119Z,38.3
2017-07-21T00:28:10.521Z,38.3
2017-07-21T00:30:05.228Z,38.3
2017-07-21T00:32:05.947Z,38.3
2017-07-21T00:34:05.787Z,38.4
2017-07-21T00:36:05.483Z,38.3
2017-07-21T00:38:05.443Z,38.2
2017-07-21T00:40:05.297Z,38.1
2017-07-21T00:42:05.549Z,38.1
2017-07-21T00:44:05.350Z,37.9
2017-07-21T00:46:07.623Z,37.8
2017-07-21T00:48:05.425Z,37.8
2017-07-21T00:50:07.710Z,37.9
2017-07-21T00:52:08.273Z,37.9
2017-07-21T00:54:06.145Z,37.9
2017-07-21T00:56:05.812Z,38.1
2017-07-21T00:58:05.673Z,37.9
2017-07-21T01:00:05.495Z,37.8
2017-07-21T01:02:05.274Z,37.8
2017-07-21T01:04:11.101Z,37.8
2017-07-21T01:06:05.838Z,37.8
2017-07-21T01:08:05.073Z,37.9
2017-07-21T01:10:05.966Z,37.9
2017-07-21T01:12:05.152Z,37.8
2017-07-21T01:14:05.384Z,37.8
2017-07-21T01:16:05.172Z,37.9
2017-07-21T01:18:05.184Z,37.9
2017-07-21T01:20:08.420Z,37.9
2017-07-21T01:22:13.079Z,37.9
2017-07-21T01:24:05.794Z,37.9
2017-07-21T01:26:10.305Z,37.8
2017-07-21T01:28:05.068Z,37.6
2017-07-21T01:30:05.762Z,37.6
2017-07-21T01:32:08.138Z,37.6
2017-07-21T01:34:13.854Z,37.6
2017-07-21T01:36:05.616Z,37.5
2017-07-21T01:38:05.347Z,37.6
2017-07-21T01:40:05.159Z,37.8
2017-07-21T01:42:13.467Z,37.8
2017-07-21T01:44:05.671Z,37.8
2017-07-21T01:46:05.488Z,37.5
2017-07-21T01:48:05.182Z,37.7
2017-07-21T01:50:05.865Z,37.7
2017-07-21T01:52:08.109Z,37.7
2017-07-21T01:54:05.799Z,37.7
2017-07-21T01:56:05.666Z,37.8
2017-07-21T01:58:05.448Z,37.8
2017-07-21T02:00:07.804Z,37.8
2017-07-21T02:02:08.017Z,37.9
2017-07-21T02:04:08.417Z,37.7
2017-07-21T02:06:05.117Z,37.8
2017-07-21T02:08:05.825Z,37.8
2017-07-21T02:10:05.689Z,37.8
2017-07-21T02:12:05.485Z,37.9
2017-07-21T02:14:07.843Z,37.9
2017-07-21T02:16:13.272Z,37.8
2017-07-21T02:18:08.335Z,37.8
2017-07-21T02:20:05.045Z,37.8
2017-07-21T02:22:05.943Z,37.8
2017-07-21T02:24:05.659Z,37.9
2017-07-21T02:26:05.878Z,37.9
2017-07-21T02:28:05.676Z,37.9
2017-07-21T02:30:08.067Z,38
2017-07-21T02:32:08.338Z,37.8
2017-07-21T02:34:05.246Z,37.8
2017-07-21T02:36:08.494Z,37.8
2017-07-21T02:38:05.288Z,37.9
2017-07-21T02:40:06.249Z,37.9
2017-07-21T02:42:11.065Z,38
2017-07-21T02:44:05.322Z,38
2017-07-21T02:46:05.163Z,38
2017-07-21T02:48:08.380Z,38
2017-07-21T02:50:05.135Z,38.1
2017-07-21T02:52:05.830Z,38.1
2017-07-21T02:54:05.525Z,38.2
2017-07-21T02:56:07.740Z,38.1
2017-07-21T02:58:05.791Z,38
2017-07-21T03:00:10.602Z,38.1
2017-07-21T03:02:05.469Z,38.1
2017-07-21T03:04:07.896Z,38.2
2017-07-21T03:06:05.646Z,38.2
2017-07-21T03:08:05.496Z,38.2
2017-07-21T03:10:05.405Z,38.2
2017-07-21T03:12:08.231Z,38.4
2017-07-21T03:14:05.908Z,38.4
2017-07-21T03:16:05.609Z,38.4
2017-07-21T03:18:05.588Z,38.2
2017-07-21T03:20:05.344Z,38.5
2017-07-21T03:22:08.302Z,38.3
2017-07-21T03:24:05.988Z,38.3
2017-07-21T03:26:05.722Z,38.4
2017-07-21T03:28:05.677Z,38.3
2017-07-21T03:30:05.933Z,38.4
2017-07-21T03:32:07.751Z,38.1
2017-07-21T03:34:05.719Z,38.1
2017-07-21T03:36:07.946Z,38.2
2017-07-21T03:38:08.173Z,38.2
2017-07-21T03:40:05.887Z,38.2
2017-07-21T03:42:07.771Z,38
2017-07-21T03:44:05.523Z,38.3
2017-07-21T03:46:08.097Z,38
2017-07-21T03:48:05.809Z,38.1
2017-07-21T03:50:05.628Z,38
2017-07-21T03:52:05.406Z,38
2017-07-21T03:54:05.081Z,38
2017-07-21T03:56:05.779Z,38.1
2017-07-21T03:58:05.859Z,38.1
2017-07-21T04:00:05.601Z,37.9
2017-07-21T04:02:05.372Z,38.1
2017-07-21T04:04:07.781Z,37.8
2017-07-21T04:06:06.111Z,37.8
2017-07-21T04:08:08.370Z,37.8
2017-07-21T04:10:05.153Z,37.9
2017-07-21T04:12:05.352Z,37.8
2017-07-21T04:14:05.093Z,37.8
2017-07-21T04:16:11.049Z,37.9
2017-07-21T04:18:05.966Z,37.9
2017-07-21T04:20:05.713Z,37.9
2017-07-21T04:22:08.155Z,38
2017-07-21T04:24:05.353Z,38
2017-07-21T04:26:05.086Z,37.9
2017-07-21T04:28:06.140Z,38
2017-07-21T04:30:10.500Z,37.9
2017-07-21T04:32:05.188Z,37.9
2017-07-21T04:34:05.908Z,38
2017-07-21T04:36:09.134Z,37.9
2017-07-21T04:38:11.063Z,37.8
2017-07-21T04:40:05.796Z,37.8
2017-07-21T04:42:05.542Z,37.8
2017-07-21T04:44:05.498Z,37.8
2017-07-21T04:46:05.359Z,37.8
2017-07-21T04:48:05.120Z,37.9
2017-07-21T04:50:05.849Z,37.8
2017-07-21T04:52:08.206Z,37.5
2017-07-21T04:54:05.928Z,37.4
2017-07-21T04:56:05.657Z,37.4
2017-07-21T04:58:07.989Z,37.5
2017-07-21T05:00:07.803Z,37.5
2017-07-21T05:02:05.228Z,37.2
2017-07-21T05:04:05.932Z,37.1
2017-07-21T05:06:05.634Z,37.3
2017-07-21T05:08:05.351Z,37.3
2017-07-21T05:10:12.807Z,37.2
2017-07-21T05:12:08.063Z,37.1
2017-07-21T05:14:05.277Z,37.1
2017-07-21T05:16:06.076Z,37
2017-07-21T05:18:05.978Z,37
2017-07-21T05:20:05.700Z,37
2017-07-21T05:22:05.787Z,36.9
2017-07-21T05:24:08.045Z,36.9
2017-07-21T05:26:05.302Z,36.9
2017-07-21T05:28:06.297Z,37
2017-07-21T05:30:05.995Z,36.6
2017-07-21T05:32:05.767Z,36.6
2017-07-21T05:34:05.595Z,36.8
2017-07-21T05:36:05.379Z,36.8
2017-07-21T05:38:05.115Z,36.7
2017-07-21T05:40:08.137Z,36.5
2017-07-21T05:42:05.903Z,36.5
2017-07-21T05:44:05.596Z,36.4
2017-07-21T05:46:05.965Z,36.6
2017-07-21T05:48:08.217Z,36.7
2017-07-21T05:50:05.448Z,36.7
2017-07-21T05:52:08.396Z,36.7
2017-07-21T05:54:10.123Z,36.7
2017-07-21T05:56:15.932Z,36.9
2017-07-21T05:58:05.957Z,36.9
2017-07-21T06:00:05.262Z,36.8
2017-07-21T06:02:05.979Z,36.7
2017-07-21T06:04:05.284Z,36.6
2017-07-21T06:06:05.552Z,36.6
2017-07-21T06:08:12.892Z,36.6
2017-07-21T06:10:05.625Z,36.6
2017-07-21T06:12:07.916Z,36.7
2017-07-21T06:14:06.355Z,36.5
2017-07-21T06:16:10.190Z,36.5
2017-07-21T06:18:05.219Z,36.5
2017-07-21T06:20:05.538Z,36.3
2017-07-21T06:22:07.902Z,36.5
2017-07-21T06:24:05.616Z,36.5
2017-07-21T06:26:05.316Z,36.5
2017-07-21T06:28:05.381Z,36
2017-07-21T06:30:07.840Z,36.4
2017-07-21T06:32:08.121Z,36.5
2017-07-21T06:34:06.105Z,36.5
2017-07-21T06:36:05.824Z,36.7
2017-07-21T06:38:08.123Z,36.7
2017-07-21T06:40:10.711Z,37.1
2017-07-21T06:42:06.087Z,36.9
2017-07-21T06:44:05.839Z,36.8
2017-07-21T06:46:08.274Z,36.9
2017-07-21T06:48:05.622Z,36.9
2017-07-21T06:50:10.504Z,36.3
2017-07-21T06:52:08.455Z,36.1
2017-07-21T06:54:07.747Z,36.1
2017-07-21T06:56:05.535Z,36.1
2017-07-21T06:58:05.765Z,36
2017-07-21T07:00:05.509Z,35.8
2017-07-21T07:02:05.367Z,35.9
2017-07-21T07:04:05.791Z,36
2017-07-21T07:06:08.037Z,35.9
2017-07-21T07:08:05.823Z,36
2017-07-21T07:10:05.761Z,36
2017-07-21T07:12:08.054Z,35.4
2017-07-21T07:14:05.737Z,35.4
2017-07-21T07:16:05.941Z,35.5
2017-07-21T07:18:08.580Z,35.3
2017-07-21T07:20:05.937Z,35.3
2017-07-21T07:22:05.823Z,35.2
2017-07-21T07:24:05.521Z,35.3
2017-07-21T07:26:05.215Z,35.1
2017-07-21T07:28:08.500Z,35
2017-07-21T07:30:08.074Z,35.4
2017-07-21T07:32:05.981Z,35.3
2017-07-21T07:34:05.923Z,35.4
2017-07-21T07:36:05.709Z,35.3
2017-07-21T07:38:05.416Z,35.6
2017-07-21T07:40:05.370Z,36.2
2017-07-21T07:42:05.083Z,36.3
2017-07-21T07:44:05.768Z,36.2
2017-07-21T07:46:06.225Z,36.1
2017-07-21T07:48:05.947Z,36.3
2017-07-21T07:50:05.706Z,36.3
2017-07-21T07:52:05.490Z,36.4
2017-07-21T07:54:05.227Z,36.3
2017-07-21T07:56:05.510Z,36.6
2017-07-21T07:58:05.210Z,36.4
2017-07-21T08:00:13.489Z,36.5
2017-07-21T08:02:05.172Z,36.4
2017-07-21T08:04:08.476Z,36.5
2017-07-21T08:06:08.304Z,36.9
2017-07-21T08:08:08.492Z,36.8
2017-07-21T08:10:05.293Z,36.8
2017-07-21T08:12:05.576Z,36.9
2017-07-21T08:14:05.290Z,36.9
2017-07-21T08:16:06.035Z,36.9
2017-07-21T08:18:07.994Z,36.9
2017-07-21T08:20:05.698Z,36.9
2017-07-21T08:22:13.143Z,37
2017-07-21T08:24:13.443Z,36.9
2017-07-21T08:26:07.786Z,37.1
2017-07-21T08:28:05.191Z,37.1
2017-07-21T08:30:07.935Z,37.2
2017-07-21T08:32:08.238Z,37.4
2017-07-21T08:34:06.000Z,37.4
2017-07-21T08:36:05.742Z,37.4
2017-07-21T08:38:05.785Z,37.9
2017-07-21T08:40:05.243Z,37.8
2017-07-21T08:42:05.163Z,37.9
2017-07-21T08:44:08.429Z,38.3
2017-07-21T08:46:10.921Z,38.4
2017-07-21T08:48:05.286Z,38.4
2017-07-21T08:50:06.115Z,38.3
2017-07-21T08:52:05.974Z,38.5
2017-07-21T08:54:05.936Z,38.6
2017-07-21T08:56:05.727Z,38.4
2017-07-21T08:58:10.521Z,38.7
2017-07-21T09:00:05.241Z,38.7
2017-07-21T09:02:08.518Z,38.9
2017-07-21T09:04:05.993Z,38.9
2017-07-21T09:06:10.806Z,39.1
2017-07-21T09:08:07.539Z,39.5
2017-07-21T09:10:05.393Z,39.3
2017-07-21T09:12:08.249Z,39.8
2017-07-21T09:14:06.011Z,39.8
2017-07-21T09:16:06.074Z,39.9
2017-07-21T09:18:05.149Z,40.2
2017-07-21T09:20:10.922Z,40.5
2017-07-21T09:22:05.640Z,40.5
2017-07-21T09:24:05.384Z,40.4
2017-07-21T09:26:07.789Z,40.6
2017-07-21T09:28:08.798Z,41.1
2017-07-21T09:30:05.457Z,40.8
2017-07-21T09:32:05.171Z,40.9
2017-07-21T09:34:06.053Z,40.8
2017-07-21T09:36:08.309Z,40.9
2017-07-21T09:38:05.008Z,40.9
2017-07-21T09:40:05.861Z,41.2
2017-07-21T09:42:05.710Z,40.7
2017-07-21T09:44:05.480Z,40.7
2017-07-21T09:46:05.833Z,40.8
2017-07-21T09:48:10.612Z,40.6
2017-07-21T09:50:05.356Z,40.6
2017-07-21T09:52:05.097Z,40.7
2017-07-21T09:54:06.123Z,41.1
2017-07-21T09:56:08.346Z,40.9
2017-07-21T09:58:05.224Z,40.7
2017-07-21T10:00:05.951Z,40.9
2017-07-21T10:02:08.312Z,40.7
2017-07-21T10:04:05.158Z,40.7
2017-07-21T10:06:10.931Z,40.8
2017-07-21T10:08:07.761Z,40.7
2017-07-21T10:10:17.946Z,40.7
2017-07-21T10:12:05.681Z,40.7
2017-07-21T10:14:05.553Z,40.7
2017-07-21T10:16:05.984Z,40.7
2017-07-21T10:18:05.494Z,40.8
2017-07-21T10:20:05.222Z,40.8
2017-07-21T10:22:05.968Z,40.7
2017-07-21T10:24:05.674Z,40.8
2017-07-21T10:26:05.393Z,40.6
2017-07-21T10:28:08.187Z,40.6
2017-07-21T10:30:05.952Z,40.6
2017-07-21T10:32:05.727Z,40.6
2017-07-21T10:34:11.062Z,40.6
2017-07-21T10:36:05.773Z,40.6
2017-07-21T10:38:05.494Z,40.5
2017-07-21T10:40:08.198Z,40.5
2017-07-21T10:42:06.001Z,40.5
2017-07-21T10:44:05.838Z,40.5
2017-07-21T10:46:05.758Z,40
2017-07-21T10:48:05.553Z,40.1
2017-07-21T10:50:05.866Z,40
2017-07-21T10:52:05.803Z,40
2017-07-21T10:54:05.549Z,39.9
2017-07-21T10:56:05.236Z,39.4
2017-07-21T10:58:05.968Z,39.3
2017-07-21T11:00:05.663Z,39.4
2017-07-21T11:02:05.382Z,39.2
2017-07-21T11:04:05.070Z,39
2017-07-21T11:06:05.255Z,39
2017-07-21T11:08:06.000Z,39
2017-07-21T11:10:06.196Z,38.6
2017-07-21T11:12:05.933Z,38.9
2017-07-21T11:14:05.821Z,38.6
2017-07-21T11:16:05.704Z,38.5
2017-07-21T11:18:05.644Z,38.4
2017-07-21T11:20:07.867Z,38.4
2017-07-21T11:22:05.603Z,38.4
2017-07-21T11:24:05.328Z,38.4
2017-07-21T11:26:07.765Z,38.6
2017-07-21T11:28:10.892Z,38.7
2017-07-21T11:30:05.704Z,38.7
2017-07-21T11:32:10.893Z,38.8
2017-07-21T11:34:05.827Z,38.8
2017-07-21T11:36:07.665Z,38.8
2017-07-21T11:38:07.965Z,38.9
2017-07-21T11:40:05.924Z,38.9
2017-07-21T11:42:05.875Z,39
2017-07-21T11:44:05.088Z,39
2017-07-21T11:46:06.030Z,39
2017-07-21T11:48:05.793Z,39.1
2017-07-21T11:50:11.085Z,39.1
2017-07-21T11:52:05.589Z,39.1
2017-07-21T11:54:05.477Z,39
2017-07-21T11:56:05.170Z,38.7
2017-07-21T11:58:05.972Z,38.6
2017-07-21T12:00:05.660Z,38.6
2017-07-21T12:02:05.399Z,38.6
2017-07-21T12:04:05.258Z,38.5
2017-07-21T12:06:06.131Z,38.6
2017-07-21T12:08:05.816Z,38.6
2017-07-21T12:10:05.594Z,38.7
2017-07-21T12:12:05.307Z,38.6
2017-07-21T12:14:05.989Z,38.6
2017-07-21T12:16:13.415Z,38.4
2017-07-21T12:18:05.742Z,38.4
2017-07-21T12:20:04.979Z,38.5
2017-07-21T12:22:05.856Z,38.8
2017-07-21T12:24:05.788Z,38.9
2017-07-21T12:26:05.492Z,38.8
2017-07-21T12:28:05.409Z,38.5
2017-07-21T12:30:05.136Z,38.8
2017-07-21T12:32:05.318Z,38.8
2017-07-21T12:34:07.703Z,38.8
2017-07-21T12:36:05.389Z,38.8
2017-07-21T12:38:05.794Z,38.9
2017-07-21T12:40:10.952Z,39
2017-07-21T12:42:05.232Z,38.9
2017-07-21T12:44:06.227Z,39
2017-07-21T12:46:05.983Z,39
2017-07-21T12:48:10.731Z,39
2017-07-21T12:50:05.953Z,39
2017-07-21T12:52:05.700Z,39
2017-07-21T12:54:05.475Z,39
2017-07-21T12:56:05.196Z,39
2017-07-21T12:58:06.006Z,39.1
2017-07-21T13:00:05.743Z,39.3
2017-07-21T13:02:08.275Z,39.4
2017-07-21T13:04:06.530Z,39.4
2017-07-21T13:06:05.149Z,39.4
2017-07-21T13:08:05.837Z,39.5
2017-07-21T13:10:05.568Z,39.6
2017-07-21T13:12:05.325Z,39.6
2017-07-21T13:14:04.988Z,39.9
2017-07-21T13:16:05.867Z,39.9
2017-07-21T13:18:05.863Z,40.2
2017-07-21T13:20:05.129Z,40
2017-07-21T13:22:05.474Z,40.1
2017-07-21T13:24:07.799Z,40.3
2017-07-21T13:26:10.727Z,40.3
2017-07-21T13:28:05.696Z,40.2
2017-07-21T13:30:07.941Z,40.3
2017-07-21T13:32:08.215Z,40.3
2017-07-21T13:34:06.186Z,40.3
2017-07-21T13:36:08.515Z,40.5
2017-07-21T13:38:10.931Z,40.5
2017-07-21T13:40:05.645Z,40.5
2017-07-21T13:42:05.515Z,40.6
2017-07-21T13:44:06.027Z,40.6
2017-07-21T13:46:05.901Z,40.8
2017-07-21T13:48:05.594Z,40.6
2017-07-21T13:50:05.311Z,40.7
2017-07-21T13:52:07.828Z,40.7
2017-07-21T13:54:05.552Z,40.7
2017-07-21T13:56:08.344Z,40.8
2017-07-21T13:58:05.460Z,40.8
2017-07-21T14:00:08.699Z,41.2
2017-07-21T14:02:05.478Z,41.2
2017-07-21T14:04:05.218Z,41.3
2017-07-21T14:06:05.921Z,41.5
2017-07-21T14:08:07.792Z,41.6
2017-07-21T14:10:05.799Z,41.6
2017-07-21T14:12:05.503Z,41.7
2017-07-21T14:14:05.260Z,41.8
2017-07-21T14:16:06.117Z,41.9
2017-07-21T14:18:05.088Z,41.9
2017-07-21T14:20:05.773Z,41.8
2017-07-21T14:22:05.484Z,41.7
2017-07-21T14:24:05.177Z,41.8
2017-07-21T14:26:10.909Z,42
2017-07-21T14:28:05.768Z,42
2017-07-21T14:30:08.132Z,42.1
2017-07-21T14:32:05.406Z,42.1
2017-07-21T14:34:07.650Z,42
2017-07-21T14:36:07.902Z,42.3
2017-07-21T14:38:05.647Z,42.2
2017-07-21T14:40:06.021Z,42.2
2017-07-21T14:42:08.304Z,42.4
2017-07-21T14:44:04.993Z,42.4
2017-07-21T14:46:10.844Z,42.3
2017-07-21T14:48:05.630Z,42.3
2017-07-21T14:50:08.021Z,42.3
2017-07-21T14:52:10.945Z,42.3
2017-07-21T14:54:08.216Z,42.3
2017-07-21T14:56:08.483Z,42.4
2017-07-21T14:58:08.010Z,42.4
2017-07-21T15:00:08.274Z,42.3
2017-07-21T15:02:05.983Z,42.3
2017-07-21T15:04:05.906Z,42.3
2017-07-21T15:06:05.154Z,42.3
2017-07-21T15:08:10.931Z,42.4
2017-07-21T15:10:10.889Z,42.3
2017-07-21T15:12:05.565Z,42.3
2017-07-21T15:14:05.602Z,42.3
2017-07-21T15:16:05.405Z,42.3
2017-07-21T15:18:05.361Z,42.3
2017-07-21T15:20:05.124Z,42.3
2017-07-21T15:22:06.000Z,42.3
2017-07-21T15:24:05.695Z,42.3
2017-07-21T15:26:05.930Z,42.3
2017-07-21T15:28:05.683Z,42.3
2017-07-21T15:30:10.534Z,42.2
2017-07-21T15:32:05.918Z,42.3
2017-07-21T15:34:05.861Z,42.3
2017-07-21T15:36:05.599Z,42.3
2017-07-21T15:38:12.926Z,42.3
2017-07-21T15:40:13.244Z,42.5
2017-07-21T15:42:11.019Z,42.3
2017-07-21T15:44:08.242Z,42.5
2017-07-21T15:46:08.535Z,42.5
2017-07-21T15:48:05.309Z,42.5
2017-07-21T15:50:10.062Z,42.6
2017-07-21T15:52:05.849Z,42.6
2017-07-21T15:54:05.534Z,42.6
2017-07-21T15:56:07.850Z,42.7
2017-07-21T15:58:08.096Z,42.6
2017-07-21T16:00:05.811Z,42.7
2017-07-21T16:02:05.554Z,42.7
2017-07-21T16:04:05.456Z,42.8
2017-07-21T16:06:05.201Z,42.8
2017-07-21T16:08:05.441Z,42.7
2017-07-21T16:10:05.300Z,42.8
2017-07-21T16:12:06.023Z,43
2017-07-21T16:14:08.221Z,43.2
2017-07-21T16:16:05.208Z,43.2
2017-07-21T16:18:10.176Z,43.4
2017-07-21T16:20:05.862Z,43.4
2017-07-21T16:22:05.820Z,43.5
2017-07-21T16:24:05.550Z,43.7
2017-07-21T16:26:05.292Z,43.7
2017-07-21T16:28:07.972Z,43.9
2017-07-21T16:30:08.307Z,43.9
2017-07-21T16:32:05.030Z,43.9
2017-07-21T16:34:05.964Z,43.8
2017-07-21T16:36:05.778Z,43.8
2017-07-21T16:38:05.643Z,44
2017-07-21T16:40:05.345Z,43.8
2017-07-21T16:42:05.070Z,43.7
2017-07-21T16:44:05.713Z,43.8
2017-07-21T16:46:05.710Z,43.9
2017-07-21T16:48:05.412Z,44.1
2017-07-21T16:50:05.142Z,43.9
2017-07-21T16:52:05.887Z,44.1
2017-07-21T16:54:05.761Z,44.1
2017-07-21T16:56:13.086Z,44.1
2017-07-21T16:58:05.880Z,44.1
2017-07-21T17:00:05.141Z,44.1
2017-07-21T17:02:05.817Z,44.1
2017-07-21T17:04:05.568Z,44.1
2017-07-21T17:06:05.880Z,44.1
2017-07-21T17:08:05.726Z,44.1
2017-07-21T17:10:05.633Z,44.1
2017-07-21T17:12:05.348Z,44.2
2017-07-21T17:14:05.025Z,43.8
2017-07-21T17:16:06.108Z,42.9
2017-07-21T17:18:05.022Z,42.2
2017-07-21T17:20:10.895Z,41.5
2017-07-21T17:22:05.768Z,41.5
2017-07-21T17:24:05.559Z,41.8
2017-07-21T17:26:08.520Z,42
2017-07-21T17:28:15.522Z,42.2
2017-07-21T17:30:05.972Z,42.2
2017-07-21T17:32:05.217Z,42.3
2017-07-21T17:34:08.639Z,42.3
2017-07-21T17:36:05.294Z,42.3
2017-07-21T17:38:06.023Z,42.2
2017-07-21T17:40:07.934Z,42.1
2017-07-21T17:42:08.323Z,41.9
2017-07-21T17:44:07.539Z,42.1
2017-07-21T17:46:05.316Z,42.1
2017-07-21T17:48:10.878Z,42.1
2017-07-21T17:50:08.091Z,42
2017-07-21T17:52:05.780Z,42.2
2017-07-21T17:54:06.058Z,42.1
2017-07-21T17:56:05.804Z,42.2
2017-07-21T17:58:05.871Z,42.3
2017-07-21T18:00:05.206Z,42.3
2017-07-21T18:02:05.949Z,42.5
2017-07-21T18:04:05.672Z,42.5
2017-07-21T18:06:05.399Z,42.6
2017-07-21T18:08:07.672Z,42.5
2017-07-21T18:10:05.437Z,42.5
2017-07-21T18:12:05.134Z,42.7
2017-07-21T18:14:05.916Z,42.8
2017-07-21T18:16:05.795Z,42.8
2017-07-21T18:18:05.747Z,42.8
2017-07-21T18:20:05.685Z,43.2
2017-07-21T18:22:11.222Z,43.2
2017-07-21T18:24:05.940Z,43.2
2017-07-21T18:26:05.165Z,43.2
2017-07-21T18:28:08.541Z,43.3
2017-07-21T18:30:06.539Z,43.3
2017-07-21T18:32:05.719Z,43.4
2017-07-21T18:34:06.138Z,43.4
2017-07-21T18:36:05.832Z,43.5
2017-07-21T18:38:05.545Z,43.5
2017-07-21T18:40:05.976Z,43.6
2017-07-21T18:42:10.586Z,43.7
2017-07-21T18:44:05.807Z,43.7
2017-07-21T18:46:05.648Z,43.7
2017-07-21T18:48:10.391Z,43.8
2017-07-21T18:50:05.539Z,43.8
2017-07-21T18:52:05.102Z,43.8
2017-07-21T18:54:08.332Z,43.8
2017-07-21T18:56:05.583Z,43.8
2017-07-21T18:58:05.539Z,43.8
2017-07-21T19:00:05.341Z,43.9
2017-07-21T19:02:07.571Z,43.9
2017-07-21T19:04:12.785Z,43.9
2017-07-21T19:06:05.536Z,43.9
2017-07-21T19:08:05.264Z,43.9
2017-07-21T19:10:08.314Z,44
2017-07-21T19:12:05.009Z,44
2017-07-21T19:14:05.713Z,44
2017-07-21T19:16:05.476Z,44
2017-07-21T19:18:05.567Z,44
2017-07-21T19:20:05.243Z,44
2017-07-21T19:22:08.607Z,44
2017-07-21T19:24:08.341Z,44.1
2017-07-21T19:26:05.242Z,44.1
2017-07-21T19:28:05.172Z,44.1
2017-07-21T19:30:05.404Z,44.1
2017-07-21T19:32:05.894Z,44.1
2017-07-21T19:34:05.863Z,44.1
2017-07-21T19:36:08.232Z,44.2
2017-07-21T19:38:05.916Z,44.2
2017-07-21T19:40:05.668Z,44.2
2017-07-21T19:42:20.659Z,44.2
2017-07-21T19:44:08.096Z,44.2
2017-07-21T19:46:06.178Z,44.3
2017-07-21T19:48:07.316Z,44.3
2017-07-21T19:50:06.134Z,44.4
2017-07-21T19:52:10.269Z,44.4
2017-07-21T19:54:08.556Z,44.5
2017-07-21T19:56:05.263Z,44.4
2017-07-21T19:58:06.372Z,44.5
2017-07-21T20:00:10.341Z,44.5
2017-07-21T20:02:05.051Z,44.5
2017-07-21T20:04:05.206Z,44.5
2017-07-21T20:06:08.539Z,44.5
2017-07-21T20:08:05.216Z,44.5
2017-07-21T20:10:05.989Z,44.6
2017-07-21T20:12:05.699Z,44.6
2017-07-21T20:14:05.461Z,44.6
2017-07-21T20:16:08.078Z,44.6
2017-07-21T20:18:05.988Z,44.7
2017-07-21T20:20:14.855Z,44.7
2017-07-21T20:22:05.711Z,44.7
2017-07-21T20:24:05.400Z,44.7
2017-07-21T20:26:05.095Z,44.8
2017-07-21T20:28:05.465Z,44.8
2017-07-21T20:30:05.140Z,44.8
2017-07-21T20:32:05.563Z,44.8
2017-07-21T20:34:08.475Z,44.8
2017-07-21T20:36:05.282Z,44.8
2017-07-21T20:38:11.804Z,44.8
2017-07-21T20:40:05.397Z,44.8
2017-07-21T20:42:05.661Z,44.8
2017-07-21T20:44:08.485Z,44.8
2017-07-21T20:46:05.231Z,44.8
2017-07-21T20:48:08.887Z,44.8
2017-07-21T20:50:05.959Z,44.8
2017-07-21T20:52:05.814Z,44.9
2017-07-21T20:54:08.477Z,44.9
2017-07-21T20:56:05.185Z,44.9
2017-07-21T20:58:06.905Z,45
2017-07-21T21:00:05.196Z,44.9
2017-07-21T21:02:05.928Z,45
2017-07-21T21:04:06.781Z,45
2017-07-21T21:06:05.458Z,45
2017-07-21T21:08:05.193Z,45
2017-07-21T21:10:06.178Z,45
2017-07-21T21:12:11.067Z,45
2017-07-21T21:14:07.074Z,45
2017-07-21T21:16:06.861Z,45
2017-07-21T21:18:08.889Z,45
2017-07-21T21:20:05.802Z,45.1
2017-07-21T21:22:06.787Z,45
2017-07-21T21:24:05.495Z,45.1
2017-07-21T21:26:08.671Z,45.1
2017-07-21T21:28:16.731Z,45.1
2017-07-21T21:30:05.192Z,45.1
2017-07-21T21:32:08.397Z,45.1
2017-07-21T21:34:05.240Z,45.1
2017-07-21T21:36:06.006Z,45.1
2017-07-21T21:38:10.795Z,45.1
2017-07-21T21:40:05.672Z,45.1
2017-07-21T21:42:08.680Z,45.1
2017-07-21T21:44:05.380Z,45.1
2017-07-21T21:46:05.128Z,45.1
2017-07-21T21:48:05.792Z,45.1
2017-07-21T21:50:05.608Z,45.1
2017-07-21T21:52:08.092Z,45.2
2017-07-21T21:54:13.449Z,45.1
2017-07-21T21:56:05.176Z,45.1
2017-07-21T21:58:05.913Z,45.2
2017-07-21T22:00:08.150Z,45.2
2017-07-21T22:02:05.892Z,45.2
2017-07-21T22:04:05.740Z,45.2
2017-07-21T22:06:05.488Z,45.2
2017-07-21T22:08:07.750Z,45.2
2017-07-21T22:10:05.476Z,45.3
2017-07-21T22:12:05.129Z,45.3
2017-07-21T22:14:05.895Z,45.3
2017-07-21T22:16:05.823Z,45.4
2017-07-21T22:18:05.806Z,45.4
2017-07-21T22:20:05.554Z,45.4
2017-07-21T22:22:10.577Z,45.4
2017-07-21T22:24:05.932Z,45.4
2017-07-21T22:26:05.644Z,45.4
2017-07-21T22:28:10.442Z,45.4
2017-07-21T22:30:05.116Z,45.3
2017-07-21T22:32:13.465Z,45.4
2017-07-21T22:34:05.948Z,45.4
2017-07-21T22:36:05.186Z,45.3
2017-07-21T22:38:05.980Z,45.4
2017-07-21T22:40:05.734Z,45.3
2017-07-21T22:42:05.460Z,45.3
2017-07-21T22:44:05.693Z,45.3
2017-07-21T22:46:05.590Z,45.3
2017-07-21T22:48:05.318Z,45.3
2017-07-21T22:50:05.055Z,45.4
2017-07-21T22:52:08.104Z,45.3
2017-07-21T22:54:05.414Z,45.1
2017-07-21T22:56:05.156Z,45.3
2017-07-21T22:58:06.180Z,45.3
2017-07-21T23:00:05.965Z,45.3
2017-07-21T23:02:08.347Z,45.3
2017-07-21T23:04:05.184Z,45.3
2017-07-21T23:06:05.433Z,45.4
2017-07-21T23:08:15.223Z,45.1
2017-07-21T23:10:08.570Z,45.4
2017-07-21T23:12:10.436Z,45.3
2017-07-21T23:14:05.316Z,45.2
2017-07-21T23:16:05.685Z,45.3
2017-07-21T23:18:05.662Z,45.4
2017-07-21T23:20:05.380Z,45.4
2017-07-21T23:22:05.662Z,45.4
2017-07-21T23:24:12.972Z,45.5
2017-07-21T23:26:08.203Z,45
2017-07-21T23:28:06.118Z,45.4
2017-07-21T23:30:05.412Z,45.4
2017-07-21T23:32:05.118Z,45.4
2017-07-21T23:34:05.976Z,45.4
2017-07-21T23:36:05.672Z,45.4
2017-07-21T23:38:10.486Z,45.5
2017-07-21T23:40:08.425Z,45.4
2017-07-21T23:42:05.096Z,19.6
2017-07-21T23:44:12.898Z,45.5
2017-07-21T23:46:08.459Z,45.3
2017-07-21T23:48:05.201Z,45.4
2017-07-21T23:50:06.135Z,45.5
2017-07-21T23:52:05.970Z,45.5
2017-07-21T23:54:08.147Z,45.5
2017-07-21T23:56:10.934Z,45.5
2017-07-21T23:58:05.395Z,45.3
